Time;durP1;ratioP1;P1;durP2;ratioP2;P2;SDS_P1;SDS_P2;PMS_P1;PMS_P2;Temp;Humidity;BMP_temperature;BMP_pressure;BME280_temperature;BME280_humidity;BME280_pressure;Samples;Min_cycle;Max_cycle;Signal;HPM_P1;HPM_P2
2021/05/29 00:00:16;;;;;;;8.68;5.20;;;;;;;;;;1496886;39;20024;-59
2021/05/29 00:01:17;;;;;;;7.50;4.82;;;;;;;;;;1496926;39;20031;-59
2021/05/29 00:02:18;;;;;;;8.63;4.70;;;;;;;;;;1497383;39;20156;-60
2021/05/29 00:03:21;;;;;;;9.93;4.82;;;;;;;;;;1497329;39;20027;-60
2021/05/29 00:04:22;;;;;;;9.07;5.20;;;;;;;;;;1497592;39;20027;-59
2021/05/29 00:05:23;;;;;;;7.30;4.78;;;;;;;;;;1496754;39;20030;-59
2021/05/29 00:06:24;;;;;;;6.80;4.85;;;;;;;;;;1496950;39;20050;-59
2021/05/29 00:07:25;;;;;;;6.53;4.88;;;;;;;;;;1497470;39;20023;-59
2021/05/29 00:08:27;;;;;;;8.00;4.60;;;;;;;;;;1497373;39;20398;-59
2021/05/29 00:09:27;;;;;;;6.57;4.60;;;;;;;;;;1497313;39;20023;-60
2021/05/29 00:10:29;;;;;;;8.52;4.82;;;;;;;;;;1497490;39;20400;-60
2021/05/29 00:11:30;;;;;;;9.00;5.03;;;;;;;;;;1497266;39;20024;-58
2021/05/29 00:12:32;;;;;;;8.52;5.25;;;;;;;;;;1497423;39;20055;-59
2021/05/29 00:13:33;;;;;;;6.63;4.70;;;;;;;;;;1497587;39;20031;-58
2021/05/29 00:14:36;;;;;;;10.00;5.25;;;;;;;;;;1497302;39;20031;-60
2021/05/29 00:15:39;;;;;;;7.30;4.78;;;;;;;;;;1497448;39;20035;-59
2021/05/29 00:16:40;;;;;;;8.18;4.93;;;;;;;;;;1497613;39;20141;-59
2021/05/29 00:17:41;;;;;;;10.88;4.70;;;;;;;;;;1497293;39;20039;-59
2021/05/29 00:18:42;;;;;;;8.32;5.20;;;;;;;;;;1497248;39;20415;-59
2021/05/29 00:19:43;;;;;;;7.32;4.88;;;;;;;;;;1497435;39;20027;-59
2021/05/29 00:20:45;;;;;;;6.68;4.75;;;;;;;;;;1497430;39;20029;-59
2021/05/29 00:21:45;;;;;;;10.98;5.60;;;;;;;;;;1497221;39;20301;-60
2021/05/29 00:22:47;;;;;;;8.18;5.15;;;;;;;;;;1497457;39;20027;-61
2021/05/29 00:23:48;;;;;;;8.77;5.10;;;;;;;;;;1497293;39;20426;-58
2021/05/29 00:24:50;;;;;;;8.27;5.35;;;;;;;;;;1497303;39;20043;-59
2021/05/29 00:25:51;;;;;;;7.75;5.13;;;;;;;;;;1497198;39;20390;-60
2021/05/29 00:26:52;;;;;;;9.60;5.70;;;;;;;;;;1497396;39;20377;-58
2021/05/29 00:27:53;;;;;;;8.68;5.50;;;;;;;;;;1497355;39;20020;-59
2021/05/29 00:28:54;;;;;;;9.90;5.45;;;;;;;;;;1497168;39;20038;-58
2021/05/29 00:29:55;;;;;;;7.85;5.60;;;;;;;;;;1497380;39;20033;-59
2021/05/29 00:30:57;;;;;;;8.15;6.00;;;;;;;;;;1497226;39;20023;-59
2021/05/29 00:31:58;;;;;;;8.00;5.40;;;;;;;;;;1497141;39;20131;-59
2021/05/29 00:33:00;;;;;;;10.15;5.63;;;;;;;;;;1497443;39;20031;-59
2021/05/29 00:34:01;;;;;;;6.88;5.40;;;;;;;;;;1497304;39;20382;-59
2021/05/29 00:35:02;;;;;;;7.82;5.35;;;;;;;;;;1497242;39;20038;-60
2021/05/29 00:36:04;;;;;;;12.20;5.57;;;;;;;;;;1497181;39;20092;-59
2021/05/29 00:37:05;;;;;;;8.20;5.68;;;;;;;;;;1497385;39;20036;-59
2021/05/29 00:38:07;;;;;;;7.72;5.30;;;;;;;;;;1497429;39;20023;-59
2021/05/29 00:39:08;;;;;;;8.73;5.57;;;;;;;;;;1497374;39;20035;-60
2021/05/29 00:40:11;;;;;;;8.85;5.93;;;;;;;;;;1497159;39;20030;-60
2021/05/29 00:41:12;;;;;;;8.60;5.18;;;;;;;;;;1497382;39;20037;-59
2021/05/29 00:42:13;;;;;;;8.18;5.82;;;;;;;;;;1497243;39;20035;-59
2021/05/29 00:43:14;;;;;;;8.45;6.03;;;;;;;;;;1497267;39;20023;-59
2021/05/29 00:44:15;;;;;;;8.65;6.15;;;;;;;;;;1497337;39;20027;-60
2021/05/29 00:45:17;;;;;;;9.13;5.55;;;;;;;;;;1497490;39;20393;-59
2021/05/29 00:46:18;;;;;;;8.20;5.43;;;;;;;;;;1497179;39;20036;-59
2021/05/29 00:47:20;;;;;;;8.82;5.85;;;;;;;;;;1497525;39;20028;-59
2021/05/29 00:48:21;;;;;;;9.20;6.50;;;;;;;;;;1497188;39;20027;-60
2021/05/29 00:49:23;;;;;;;8.98;6.18;;;;;;;;;;1497410;39;20038;-61
2021/05/29 00:50:23;;;;;;;9.80;6.75;;;;;;;;;;1497219;39;20298;-59
2021/05/29 00:51:25;;;;;;;8.85;6.30;;;;;;;;;;1496811;39;20038;-59
2021/05/29 00:52:27;;;;;;;10.18;6.90;;;;;;;;;;1496732;39;20039;-59
2021/05/29 00:53:29;;;;;;;9.85;6.88;;;;;;;;;;1497450;39;20032;-59
2021/05/29 00:54:30;;;;;;;8.98;6.53;;;;;;;;;;1497179;39;20027;-59
2021/05/29 00:55:32;;;;;;;9.00;6.65;;;;;;;;;;1497294;39;20027;-59
2021/05/29 00:56:33;;;;;;;7.20;5.60;;;;;;;;;;1497391;39;20027;-58
2021/05/29 00:57:38;;;;;;;8.45;5.78;;;;;;;;;;1497420;39;20036;-59
2021/05/29 00:58:40;;;;;;;10.98;6.03;;;;;;;;;;1497384;39;20039;-59
2021/05/29 00:59:42;;;;;;;9.82;6.50;;;;;;;;;;1497378;39;20027;-60
2021/05/29 01:00:43;;;;;;;8.68;6.43;;;;;;;;;;1497464;39;20107;-59
2021/05/29 01:01:46;;;;;;;7.97;6.63;;;;;;;;;;1497281;39;20064;-59
2021/05/29 01:02:48;;;;;;;9.65;6.80;;;;;;;;;;1497226;39;20031;-60
2021/05/29 01:03:49;;;;;;;12.43;7.32;;;;;;;;;;1497417;39;20032;-59
2021/05/29 01:04:50;;;;;;;9.43;6.65;;;;;;;;;;1497148;39;20413;-60
2021/05/29 01:05:52;;;;;;;10.52;6.93;;;;;;;;;;1497056;39;20031;-62
2021/05/29 01:06:53;;;;;;;9.70;7.00;;;;;;;;;;1497184;39;20035;-60
2021/05/29 01:07:55;;;;;;;10.30;6.53;;;;;;;;;;1497396;39;20027;-58
2021/05/29 01:08:55;;;;;;;10.07;6.65;;;;;;;;;;1497251;39;20034;-59
2021/05/29 01:09:57;;;;;;;9.25;6.40;;;;;;;;;;1497253;39;20379;-60
2021/05/29 01:10:58;;;;;;;9.80;6.82;;;;;;;;;;1497296;39;20027;-60
2021/05/29 01:11:59;;;;;;;9.95;6.75;;;;;;;;;;1497114;39;20038;-60
2021/05/29 01:13:02;;;;;;;10.98;6.93;;;;;;;;;;1497257;39;20035;-58
2021/05/29 01:14:03;;;;;;;10.73;6.68;;;;;;;;;;1497299;39;20111;-60
2021/05/29 01:15:08;;;;;;;9.38;6.70;;;;;;;;;;1497285;39;20096;-60
2021/05/29 01:16:16;;;;;;;9.48;6.97;;;;;;;;;;1496882;39;20103;-60
2021/05/29 01:17:19;;;;;;;11.45;7.03;;;;;;;;;;1496858;39;20031;-61
2021/05/29 01:18:19;;;;;;;10.57;6.65;;;;;;;;;;1497082;39;20027;-59
2021/05/29 01:19:21;;;;;;;10.88;6.95;;;;;;;;;;1497296;39;20023;-58
2021/05/29 01:20:22;;;;;;;9.90;7.03;;;;;;;;;;1497352;39;20027;-60
2021/05/29 01:21:23;;;;;;;10.45;6.43;;;;;;;;;;1497381;39;20291;-60
2021/05/29 01:22:44;;;;;;;10.90;6.85;;;;;;;;;;1497249;39;20042;-59
2021/05/29 01:23:44;;;;;;;;;;;;;;;;;;1497693;39;20030;-59
2021/05/29 01:24:46;;;;;;;10.73;6.20;;;;;;;;;;1497126;39;20274;-59
2021/05/29 01:25:47;;;;;;;8.82;6.05;;;;;;;;;;1497111;39;20028;-60
2021/05/29 01:26:50;;;;;;;10.27;6.78;;;;;;;;;;1497292;39;20028;-59
2021/05/29 01:27:56;;;;;;;10.82;6.80;;;;;;;;;;1497328;39;20039;-60
2021/05/29 01:28:57;;;;;;;10.82;6.57;;;;;;;;;;1497007;39;20397;-60
2021/05/29 01:29:58;;;;;;;9.15;6.30;;;;;;;;;;1497158;39;20055;-60
2021/05/29 01:31:02;;;;;;;11.50;6.03;;;;;;;;;;1497326;39;20038;-60
2021/05/29 01:32:05;;;;;;;11.40;6.15;;;;;;;;;;1496974;39;20035;-59
2021/05/29 01:33:11;;;;;;;8.27;6.22;;;;;;;;;;1496763;39;20023;-60
2021/05/29 01:34:20;;;;;;;9.23;6.38;;;;;;;;;;1497375;39;20027;-61
2021/05/29 01:35:21;;;;;;;10.13;5.90;;;;;;;;;;1497094;39;20401;-60
2021/05/29 01:36:23;;;;;;;10.20;6.53;;;;;;;;;;1497307;39;20108;-60
2021/05/29 01:37:24;;;;;;;8.63;6.10;;;;;;;;;;1497128;39;20459;-59
2021/05/29 01:38:27;;;;;;;10.02;6.78;;;;;;;;;;1497254;39;20115;-60
2021/05/29 01:39:29;;;;;;;18.85;7.20;;;;;;;;;;1497116;39;20031;-60
2021/05/29 01:40:30;;;;;;;10.18;6.85;;;;;;;;;;1496537;39;20027;-59
2021/05/29 01:41:31;;;;;;;9.35;6.50;;;;;;;;;;1496630;39;20023;-60
2021/05/29 01:42:35;;;;;;;10.52;7.10;;;;;;;;;;1497029;39;20423;-59
2021/05/29 01:43:38;;;;;;;10.77;6.57;;;;;;;;;;1496998;39;20387;-59
2021/05/29 01:44:39;;;;;;;8.60;5.95;;;;;;;;;;1497221;39;20028;-59
2021/05/29 01:45:42;;;;;;;10.77;6.43;;;;;;;;;;1497386;39;20097;-59
2021/05/29 01:46:43;;;;;;;9.93;6.68;;;;;;;;;;1497009;39;20387;-59
2021/05/29 01:47:46;;;;;;;10.80;6.82;;;;;;;;;;1497311;39;20031;-58
2021/05/29 01:48:49;;;;;;;11.18;6.45;;;;;;;;;;1497146;39;20028;-60
2021/05/29 01:49:50;;;;;;;9.25;6.32;;;;;;;;;;1497183;39;20028;-59
2021/05/29 01:50:52;;;;;;;8.82;6.60;;;;;;;;;;1497179;39;20057;-60
2021/05/29 01:51:56;;;;;;;9.82;6.53;;;;;;;;;;1496945;39;20042;-60
2021/05/29 01:53:04;;;;;;;12.95;6.40;;;;;;;;;;1497092;39;20023;-59
2021/05/29 01:54:06;;;;;;;11.00;6.75;;;;;;;;;;1497310;39;20031;-60
2021/05/29 01:55:08;;;;;;;9.52;6.75;;;;;;;;;;1497166;39;20024;-60
2021/05/29 01:56:11;;;;;;;12.70;6.88;;;;;;;;;;1497240;39;20038;-59
2021/05/29 01:57:12;;;;;;;10.30;6.60;;;;;;;;;;1497109;39;20024;-59
2021/05/29 01:58:14;;;;;;;10.68;7.20;;;;;;;;;;1497179;39;20027;-60
2021/05/29 01:59:15;;;;;;;11.57;7.05;;;;;;;;;;1497295;39;20024;-59
2021/05/29 02:00:18;;;;;;;13.43;6.68;;;;;;;;;;1497224;39;20035;-61
2021/05/29 02:01:19;;;;;;;9.35;6.78;;;;;;;;;;1497021;39;20023;-60
2021/05/29 02:02:20;;;;;;;11.13;7.15;;;;;;;;;;1497087;39;20046;-59
2021/05/29 02:03:21;;;;;;;11.35;7.07;;;;;;;;;;1497070;39;20387;-59
2021/05/29 02:04:23;;;;;;;12.63;7.22;;;;;;;;;;1496998;39;20028;-60
2021/05/29 02:05:26;;;;;;;10.80;6.90;;;;;;;;;;1497131;39;20031;-60
2021/05/29 02:06:27;;;;;;;10.77;6.40;;;;;;;;;;1497244;39;20043;-59
2021/05/29 02:07:28;;;;;;;10.13;7.25;;;;;;;;;;1496998;39;20031;-60
2021/05/29 02:08:29;;;;;;;11.80;7.13;;;;;;;;;;1497000;39;20024;-59
2021/05/29 02:09:31;;;;;;;11.10;7.13;;;;;;;;;;1497261;39;20034;-60
2021/05/29 02:10:34;;;;;;;10.23;7.53;;;;;;;;;;1497106;39;20028;-60
2021/05/29 02:11:36;;;;;;;12.20;6.93;;;;;;;;;;1497077;39;20027;-61
2021/05/29 02:12:40;;;;;;;11.68;7.75;;;;;;;;;;1497143;39;20032;-59
2021/05/29 02:13:42;;;;;;;10.30;7.00;;;;;;;;;;1497008;39;20309;-60
2021/05/29 02:14:43;;;;;;;11.90;6.53;;;;;;;;;;1497098;39;20049;-60
2021/05/29 02:15:44;;;;;;;9.25;6.70;;;;;;;;;;1497008;39;20071;-59
2021/05/29 02:16:46;;;;;;;10.25;6.90;;;;;;;;;;1496932;39;20024;-59
2021/05/29 02:17:49;;;;;;;10.07;7.20;;;;;;;;;;1497124;39;20039;-60
2021/05/29 02:18:50;;;;;;;10.05;7.10;;;;;;;;;;1497088;39;20031;-60
2021/05/29 02:19:51;;;;;;;10.98;7.10;;;;;;;;;;1496941;39;20036;-59
2021/05/29 02:20:55;;;;;;;10.35;6.35;;;;;;;;;;1496988;39;20035;-60
2021/05/29 02:21:55;;;;;;;10.40;6.97;;;;;;;;;;1496949;39;20031;-60
2021/05/29 02:22:57;;;;;;;13.00;7.22;;;;;;;;;;1497293;39;20031;-59
2021/05/29 02:23:58;;;;;;;11.45;7.45;;;;;;;;;;1497095;39;20034;-59
2021/05/29 02:25:00;;;;;;;11.45;7.65;;;;;;;;;;1496910;39;20031;-60
2021/05/29 02:26:04;;;;;;;12.35;7.50;;;;;;;;;;1496974;39;20284;-60
2021/05/29 02:27:05;;;;;;;11.52;7.60;;;;;;;;;;1497107;39;20033;-59
2021/05/29 02:28:07;;;;;;;11.02;7.68;;;;;;;;;;1496935;39;20064;-59
2021/05/29 02:29:08;;;;;;;11.70;7.03;;;;;;;;;;1496919;39;20387;-60
2021/05/29 02:30:10;;;;;;;8.52;6.57;;;;;;;;;;1496957;39;20032;-59
2021/05/29 02:31:13;;;;;;;9.93;6.90;;;;;;;;;;1497089;39;20108;-59
2021/05/29 02:32:14;;;;;;;9.13;6.70;;;;;;;;;;1496867;39;20043;-59
2021/05/29 02:33:16;;;;;;;11.23;7.28;;;;;;;;;;1497039;39;20031;-60
2021/05/29 02:34:17;;;;;;;11.13;7.90;;;;;;;;;;1496959;39;20034;-60
2021/05/29 02:35:18;;;;;;;10.45;7.25;;;;;;;;;;1496488;39;20042;-59
2021/05/29 02:36:20;;;;;;;9.88;7.07;;;;;;;;;;1496496;39;20032;-60
2021/05/29 02:37:20;;;;;;;10.15;6.85;;;;;;;;;;1496870;39;20027;-60
2021/05/29 02:38:22;;;;;;;10.30;7.32;;;;;;;;;;1497199;39;20027;-59
2021/05/29 02:39:23;;;;;;;9.60;7.32;;;;;;;;;;1496950;39;20034;-59
2021/05/29 02:40:25;;;;;;;12.05;8.00;;;;;;;;;;1497135;39;20404;-59
2021/05/29 02:41:26;;;;;;;11.43;7.60;;;;;;;;;;1497126;39;20112;-60
2021/05/29 02:42:28;;;;;;;10.63;7.35;;;;;;;;;;1496818;39;20042;-60
2021/05/29 02:43:28;;;;;;;10.90;7.55;;;;;;;;;;1497090;39;20032;-61
2021/05/29 02:44:30;;;;;;;10.88;7.70;;;;;;;;;;1497614;39;20031;-60
2021/05/29 02:45:31;;;;;;;18.17;8.10;;;;;;;;;;1497859;39;20034;-59
2021/05/29 02:46:32;;;;;;;10.10;7.00;;;;;;;;;;1497866;39;20027;-60
2021/05/29 02:47:33;;;;;;;10.00;7.25;;;;;;;;;;1497716;39;20030;-59
2021/05/29 02:48:35;;;;;;;9.55;6.55;;;;;;;;;;1497561;39;20406;-60
2021/05/29 02:49:36;;;;;;;10.27;6.63;;;;;;;;;;1497656;39;20023;-59
2021/05/29 02:50:39;;;;;;;10.98;7.47;;;;;;;;;;1497622;39;20326;-59
2021/05/29 02:51:39;;;;;;;10.80;6.82;;;;;;;;;;1497651;39;20031;-59
2021/05/29 02:52:42;;;;;;;12.07;7.80;;;;;;;;;;1497557;39;20028;-60
2021/05/29 02:53:43;;;;;;;10.70;7.35;;;;;;;;;;1497569;39;20379;-60
2021/05/29 02:54:44;;;;;;;11.75;7.22;;;;;;;;;;1497633;39;20113;-59
2021/05/29 02:55:46;;;;;;;9.43;7.40;;;;;;;;;;1497500;39;20023;-59
2021/05/29 02:56:48;;;;;;;12.40;7.68;;;;;;;;;;1497740;39;20038;-59
2021/05/29 02:57:50;;;;;;;10.55;7.03;;;;;;;;;;1497446;39;20030;-60
2021/05/29 02:58:51;;;;;;;10.73;6.85;;;;;;;;;;1497558;39;20272;-60
2021/05/29 02:59:52;;;;;;;9.45;7.15;;;;;;;;;;1497637;39;20030;-59
2021/05/29 03:00:53;;;;;;;11.80;7.47;;;;;;;;;;1497623;39;20291;-59
2021/05/29 03:01:54;;;;;;;9.75;7.55;;;;;;;;;;1497672;39;20031;-59
2021/05/29 03:02:56;;;;;;;9.82;6.78;;;;;;;;;;1497734;39;20039;-60
2021/05/29 03:03:57;;;;;;;10.00;6.97;;;;;;;;;;1497648;39;20129;-59
2021/05/29 03:04:59;;;;;;;11.80;7.60;;;;;;;;;;1497812;39;20028;-59
2021/05/29 03:06:00;;;;;;;9.90;7.15;;;;;;;;;;1497458;39;20024;-59
2021/05/29 03:07:01;;;;;;;11.75;7.22;;;;;;;;;;1497692;39;20027;-59
2021/05/29 03:08:03;;;;;;;9.85;6.47;;;;;;;;;;1496991;39;20506;-60
2021/05/29 03:09:06;;;;;;;9.93;7.07;;;;;;;;;;1497085;39;20058;-60
2021/05/29 03:10:08;;;;;;;11.30;6.80;;;;;;;;;;1497401;39;20039;-60
2021/05/29 03:11:11;;;;;;;11.10;7.72;;;;;;;;;;1497521;39;20295;-59
2021/05/29 03:12:12;;;;;;;13.52;7.55;;;;;;;;;;1497657;39;20032;-59
2021/05/29 03:13:14;;;;;;;10.40;7.82;;;;;;;;;;1497514;39;20023;-59
2021/05/29 03:14:15;;;;;;;12.23;7.70;;;;;;;;;;1497598;39;20140;-60
2021/05/29 03:15:19;;;;;;;9.98;7.45;;;;;;;;;;1497681;39;20467;-60
2021/05/29 03:16:20;;;;;;;11.13;7.30;;;;;;;;;;1497693;39;20031;-60
2021/05/29 03:17:21;;;;;;;11.57;6.85;;;;;;;;;;1497703;39;20290;-59
2021/05/29 03:18:22;;;;;;;13.20;6.93;;;;;;;;;;1497568;39;20032;-60
2021/05/29 03:19:24;;;;;;;10.13;7.03;;;;;;;;;;1497546;39;20031;-60
2021/05/29 03:20:27;;;;;;;9.00;6.82;;;;;;;;;;1497541;39;20042;-59
2021/05/29 03:21:28;;;;;;;9.38;6.88;;;;;;;;;;1497477;39;20360;-58
2021/05/29 03:22:29;;;;;;;9.23;6.80;;;;;;;;;;1497319;39;20310;-59
2021/05/29 03:23:30;;;;;;;12.88;7.30;;;;;;;;;;1497481;39;20032;-59
2021/05/29 03:24:31;;;;;;;10.75;7.15;;;;;;;;;;1497588;39;20036;-59
2021/05/29 03:25:33;;;;;;;12.75;7.28;;;;;;;;;;1497481;39;20078;-60
2021/05/29 03:26:34;;;;;;;11.60;7.95;;;;;;;;;;1497330;39;20487;-59
2021/05/29 03:27:37;;;;;;;10.80;7.70;;;;;;;;;;1497676;39;20071;-60
2021/05/29 03:28:37;;;;;;;10.25;6.82;;;;;;;;;;1497358;39;20035;-58
2021/05/29 03:29:39;;;;;;;13.13;7.45;;;;;;;;;;1497698;39;20039;-60
2021/05/29 03:30:43;;;;;;;9.45;6.70;;;;;;;;;;1497359;39;20039;-59
2021/05/29 03:31:44;;;;;;;11.68;7.13;;;;;;;;;;1497570;39;20067;-59
2021/05/29 03:32:46;;;;;;;10.77;7.03;;;;;;;;;;1497447;39;20379;-59
2021/05/29 03:33:47;;;;;;;12.00;7.18;;;;;;;;;;1497425;39;20035;-59
2021/05/29 03:34:48;;;;;;;10.98;7.18;;;;;;;;;;1497612;39;20034;-59
2021/05/29 03:35:49;;;;;;;9.85;7.25;;;;;;;;;;1497623;39;20027;-59
2021/05/29 03:36:51;;;;;;;11.65;7.15;;;;;;;;;;1497466;39;20376;-59
2021/05/29 03:37:52;;;;;;;10.45;7.38;;;;;;;;;;1497510;39;20032;-60
2021/05/29 03:38:53;;;;;;;10.95;7.60;;;;;;;;;;1497112;39;20031;-59
2021/05/29 03:39:54;;;;;;;10.38;7.25;;;;;;;;;;1497143;39;20034;-60
2021/05/29 03:40:55;;;;;;;10.00;6.70;;;;;;;;;;1497398;39;20294;-60
2021/05/29 03:41:57;;;;;;;9.77;6.78;;;;;;;;;;1497325;39;20031;-59
2021/05/29 03:42:58;;;;;;;10.40;7.22;;;;;;;;;;1497316;39;20028;-60
2021/05/29 03:44:00;;;;;;;10.48;7.18;;;;;;;;;;1497361;39;20025;-60
2021/05/29 03:45:04;;;;;;;12.00;7.30;;;;;;;;;;1497641;39;20139;-60
2021/05/29 03:46:05;;;;;;;11.07;7.38;;;;;;;;;;1497356;39;20402;-60
2021/05/29 03:47:06;;;;;;;10.90;7.10;;;;;;;;;;1497345;39;20039;-59
2021/05/29 03:48:07;;;;;;;10.52;7.22;;;;;;;;;;1496911;39;20028;-59
2021/05/29 03:49:09;;;;;;;10.95;7.13;;;;;;;;;;1497098;39;20038;-59
2021/05/29 03:50:12;;;;;;;13.45;7.70;;;;;;;;;;1497403;39;20028;-59
2021/05/29 03:51:13;;;;;;;12.35;7.55;;;;;;;;;;1497417;39;20402;-60
2021/05/29 03:52:14;;;;;;;11.52;6.95;;;;;;;;;;1497357;39;20429;-59
2021/05/29 03:53:16;;;;;;;11.73;7.75;;;;;;;;;;1497708;39;20041;-60
2021/05/29 03:54:17;;;;;;;11.63;7.30;;;;;;;;;;1497368;39;20031;-60
2021/05/29 03:55:20;;;;;;;10.82;7.63;;;;;;;;;;1497435;39;20050;-58
2021/05/29 03:56:21;;;;;;;10.50;7.35;;;;;;;;;;1497225;39;20386;-59
2021/05/29 03:57:24;;;;;;;11.73;7.53;;;;;;;;;;1497384;39;20034;-60
2021/05/29 03:58:25;;;;;;;11.07;8.05;;;;;;;;;;1497382;39;20039;-59
2021/05/29 03:59:26;;;;;;;12.98;7.45;;;;;;;;;;1497289;39;20030;-60
2021/05/29 04:00:28;;;;;;;11.27;7.22;;;;;;;;;;1497606;39;20027;-59
2021/05/29 04:01:29;;;;;;;10.25;6.82;;;;;;;;;;1497372;39;20038;-59
2021/05/29 04:02:30;;;;;;;10.25;7.07;;;;;;;;;;1497303;39;20023;-59
2021/05/29 04:03:31;;;;;;;11.05;7.18;;;;;;;;;;1497361;39;20023;-59
2021/05/29 04:04:32;;;;;;;9.63;6.85;;;;;;;;;;1497240;39;20027;-60
2021/05/29 04:05:33;;;;;;;11.93;7.65;;;;;;;;;;1497486;39;20035;-59
2021/05/29 04:06:35;;;;;;;12.07;7.75;;;;;;;;;;1497479;39;20402;-59
2021/05/29 04:07:38;;;;;;;9.48;6.97;;;;;;;;;;1497523;39;20039;-60
2021/05/29 04:08:39;;;;;;;8.80;6.45;;;;;;;;;;1497431;39;20112;-60
2021/05/29 04:09:41;;;;;;;11.48;7.07;;;;;;;;;;1497355;39;20333;-60
2021/05/29 04:10:41;;;;;;;11.82;7.57;;;;;;;;;;1497301;39;20089;-59
2021/05/29 04:11:43;;;;;;;9.98;6.72;;;;;;;;;;1497175;39;20417;-61
2021/05/29 04:12:45;;;;;;;10.45;7.07;;;;;;;;;;1497463;39;20035;-60
2021/05/29 04:13:46;;;;;;;12.90;7.50;;;;;;;;;;1497318;39;20035;-60
2021/05/29 04:14:47;;;;;;;10.43;7.60;;;;;;;;;;1497409;39;20329;-58
2021/05/29 04:15:48;;;;;;;9.93;6.60;;;;;;;;;;1497468;39;20039;-58
2021/05/29 04:16:49;;;;;;;11.07;7.78;;;;;;;;;;1497460;39;20031;-60
2021/05/29 04:17:51;;;;;;;12.48;7.90;;;;;;;;;;1497428;39;20032;-60
2021/05/29 04:18:52;;;;;;;10.18;7.40;;;;;;;;;;1497520;39;20032;-59
2021/05/29 04:19:53;;;;;;;8.82;7.05;;;;;;;;;;1496992;39;20024;-58
2021/05/29 04:20:54;;;;;;;13.07;7.40;;;;;;;;;;1496763;39;20384;-61
2021/05/29 04:21:56;;;;;;;10.88;7.47;;;;;;;;;;1497347;39;20071;-60
2021/05/29 04:22:56;;;;;;;10.82;7.72;;;;;;;;;;1496844;39;20027;-59
2021/05/29 04:23:58;;;;;;;10.15;6.82;;;;;;;;;;1496828;39;20027;-60
2021/05/29 04:24:59;;;;;;;10.65;7.40;;;;;;;;;;1497226;39;20030;-59
2021/05/29 04:26:00;;;;;;;9.68;7.00;;;;;;;;;;1497393;39;20030;-60
2021/05/29 04:27:01;;;;;;;10.48;6.95;;;;;;;;;;1497419;39;20108;-60
2021/05/29 04:28:04;;;;;;;11.23;7.30;;;;;;;;;;1496850;39;20027;-60
2021/05/29 04:29:05;;;;;;;10.82;7.82;;;;;;;;;;1496763;39;20031;-59
2021/05/29 04:30:09;;;;;;;10.30;7.40;;;;;;;;;;1497276;39;20031;-60
2021/05/29 04:31:10;;;;;;;12.40;7.53;;;;;;;;;;1497300;39;20368;-60
2021/05/29 04:32:11;;;;;;;12.52;7.72;;;;;;;;;;1497253;39;20391;-60
2021/05/29 04:33:12;;;;;;;10.60;7.75;;;;;;;;;;1497459;39;20036;-59
2021/05/29 04:34:13;;;;;;;11.55;8.07;;;;;;;;;;1497313;39;20100;-60
2021/05/29 04:35:15;;;;;;;13.38;8.20;;;;;;;;;;1497347;39;20463;-60
2021/05/29 04:36:16;;;;;;;10.93;7.35;;;;;;;;;;1497206;39;20034;-60
2021/05/29 04:37:18;;;;;;;12.00;7.63;;;;;;;;;;1497402;39;20019;-60
2021/05/29 04:38:19;;;;;;;9.10;7.28;;;;;;;;;;1497382;39;20038;-60
2021/05/29 04:39:20;;;;;;;12.07;7.43;;;;;;;;;;1497268;39;20031;-60
2021/05/29 04:40:24;;;;;;;12.07;7.70;;;;;;;;;;1497207;39;20318;-59
2021/05/29 04:41:25;;;;;;;12.07;7.50;;;;;;;;;;1497450;39;20031;-59
2021/05/29 04:42:26;;;;;;;9.38;7.20;;;;;;;;;;1497152;39;20035;-59
2021/05/29 04:43:28;;;;;;;13.68;7.45;;;;;;;;;;1497290;39;20039;-59
2021/05/29 04:44:29;;;;;;;11.10;7.43;;;;;;;;;;1497353;39;20030;-60
2021/05/29 04:45:30;;;;;;;11.48;7.60;;;;;;;;;;1497330;39;20030;-59
2021/05/29 04:46:38;;;;;;;11.18;7.82;;;;;;;;;;1497664;39;20039;-59
2021/05/29 04:47:40;;;;;;;9.93;7.72;;;;;;;;;;1497516;39;20027;-60
2021/05/29 04:48:41;;;;;;;15.32;7.85;;;;;;;;;;1497376;39;20028;-59
2021/05/29 04:49:42;;;;;;;9.88;6.95;;;;;;;;;;1497269;39;20048;-59
2021/05/29 04:52:04;;;;;;;12.13;7.63;;;;;;;;;;1497429;39;20027;-60
2021/05/29 04:53:05;;;;;;;10.60;7.25;;;;;;;;;;1497214;39;20390;-60
2021/05/29 04:54:07;;;;;;;10.40;7.30;;;;;;;;;;1497255;39;20038;-59
2021/05/29 04:55:10;;;;;;;10.50;6.78;;;;;;;;;;1497137;39;20035;-59
2021/05/29 04:56:13;;;;;;;10.30;7.70;;;;;;;;;;1497315;39;20019;-59
2021/05/29 04:57:13;;;;;;;10.30;7.65;;;;;;;;;;1497198;39;20034;-58
2021/05/29 04:58:16;;;;;;;12.05;7.35;;;;;;;;;;1497506;39;20043;-59
2021/05/29 04:59:18;;;;;;;9.55;7.50;;;;;;;;;;1497346;39;20027;-59
2021/05/29 05:00:20;;;;;;;9.35;6.82;;;;;;;;;;1497366;39;20023;-59
2021/05/29 05:01:23;;;;;;;11.13;7.45;;;;;;;;;;1497166;39;20384;-59
2021/05/29 05:02:25;;;;;;;11.25;7.43;;;;;;;;;;1497148;39;20071;-59
2021/05/29 05:03:26;;;;;;;12.77;7.85;;;;;;;;;;1497343;39;20038;-60
2021/05/29 05:04:27;;;;;;;9.48;6.97;;;;;;;;;;1497463;39;20027;-60
2021/05/29 05:05:28;;;;;;;9.95;7.47;;;;;;;;;;1497311;39;20034;-60
2021/05/29 05:06:29;;;;;;;9.05;6.53;;;;;;;;;;1497363;39;20066;-60
2021/05/29 05:07:30;;;;;;;9.50;6.35;;;;;;;;;;1496656;39;20303;-59
2021/05/29 05:08:32;;;;;;;9.95;7.18;;;;;;;;;;1497495;39;20031;-59
2021/05/29 05:09:33;;;;;;;9.10;6.43;;;;;;;;;;1497064;39;20479;-59
2021/05/29 05:10:34;;;;;;;9.40;6.75;;;;;;;;;;1497177;39;20035;-58
2021/05/29 05:11:35;;;;;;;9.88;6.55;;;;;;;;;;1497313;39;20019;-59
2021/05/29 05:12:36;;;;;;;8.02;6.50;;;;;;;;;;1497187;39;20394;-59
2021/05/29 05:13:38;;;;;;;10.48;6.80;;;;;;;;;;1497255;39;20038;-59
2021/05/29 05:14:41;;;;;;;11.20;7.03;;;;;;;;;;1497448;39;20031;-59
2021/05/29 05:15:42;;;;;;;8.10;6.63;;;;;;;;;;1497182;39;20054;-59
2021/05/29 05:16:43;;;;;;;8.13;6.50;;;;;;;;;;1497218;39;20038;-59
2021/05/29 05:17:44;;;;;;;8.38;5.88;;;;;;;;;;1497326;39;20027;-59
2021/05/29 05:18:46;;;;;;;9.13;6.32;;;;;;;;;;1497393;39;20379;-59
2021/05/29 05:19:47;;;;;;;7.72;6.38;;;;;;;;;;1497264;39;20031;-58
2021/05/29 05:20:48;;;;;;;10.15;5.97;;;;;;;;;;1497408;39;20023;-59
2021/05/29 05:21:49;;;;;;;10.35;6.10;;;;;;;;;;1497072;39;20027;-59
2021/05/29 05:22:51;;;;;;;8.68;6.63;;;;;;;;;;1497217;39;20507;-59
2021/05/29 05:23:54;;;;;;;8.63;5.97;;;;;;;;;;1497116;39;20096;-59
2021/05/29 05:24:55;;;;;;;10.02;6.10;;;;;;;;;;1497197;39;20372;-59
2021/05/29 05:25:56;;;;;;;8.43;6.05;;;;;;;;;;1496703;39;20024;-59
2021/05/29 05:26:58;;;;;;;9.95;5.78;;;;;;;;;;1496728;39;20423;-59
2021/05/29 05:27:59;;;;;;;9.07;6.55;;;;;;;;;;1497067;39;20409;-59
2021/05/29 05:29:00;;;;;;;7.82;5.78;;;;;;;;;;1497079;39;20489;-59
2021/05/29 05:30:03;;;;;;;8.60;5.72;;;;;;;;;;1497136;39;20387;-59
2021/05/29 05:31:05;;;;;;;7.35;6.13;;;;;;;;;;1497187;39;20283;-59
2021/05/29 05:32:08;;;;;;;7.63;5.40;;;;;;;;;;1497206;39;20063;-59
2021/05/29 05:33:09;;;;;;;7.90;5.63;;;;;;;;;;1497251;39;20058;-59
2021/05/29 05:34:10;;;;;;;7.78;5.72;;;;;;;;;;1497078;39;20302;-60
2021/05/29 05:35:14;;;;;;;8.93;5.93;;;;;;;;;;1497126;39;20039;-59
2021/05/29 05:36:15;;;;;;;9.23;5.43;;;;;;;;;;1497021;39;20039;-59
2021/05/29 05:37:17;;;;;;;7.45;5.43;;;;;;;;;;1497166;39;20031;-59
2021/05/29 05:38:19;;;;;;;6.30;5.28;;;;;;;;;;1497452;39;20038;-59
2021/05/29 05:39:20;;;;;;;7.82;5.10;;;;;;;;;;1497218;39;20054;-59
2021/05/29 05:40:21;;;;;;;7.22;5.03;;;;;;;;;;1497155;39;20056;-58
2021/05/29 05:41:22;;;;;;;8.75;5.90;;;;;;;;;;1497321;39;20028;-59
2021/05/29 05:42:23;;;;;;;7.50;5.55;;;;;;;;;;1497167;39;20383;-59
2021/05/29 05:43:24;;;;;;;8.02;5.45;;;;;;;;;;1496718;39;20024;-60
2021/05/29 05:44:26;;;;;;;6.65;5.43;;;;;;;;;;1496878;39;20097;-60
2021/05/29 05:45:27;;;;;;;7.03;5.35;;;;;;;;;;1497195;39;20027;-59
2021/05/29 05:46:29;;;;;;;9.02;5.90;;;;;;;;;;1497021;39;20028;-59
2021/05/29 05:47:32;;;;;;;9.57;5.90;;;;;;;;;;1497282;39;20036;-59
2021/05/29 05:48:33;;;;;;;6.90;5.40;;;;;;;;;;1497135;39;20064;-59
2021/05/29 05:49:34;;;;;;;7.40;5.32;;;;;;;;;;1497170;39;20034;-59
2021/05/29 05:50:51;;;;;;;7.25;5.72;;;;;;;;;;1497289;39;20071;-60
2021/05/29 05:51:52;;;;;;;6.30;5.07;;;;;;;;;;1497104;39;20303;-60
2021/05/29 05:52:53;;;;;;;7.35;5.50;;;;;;;;;;1497060;39;20036;-59
2021/05/29 05:53:54;;;;;;;7.75;5.72;;;;;;;;;;1497235;39;20039;-59
2021/05/29 05:54:55;;;;;;;7.72;5.25;;;;;;;;;;1496999;39;20027;-60
2021/05/29 05:56:00;;;;;;;7.93;5.47;;;;;;;;;;1497109;39;20038;-59
2021/05/29 05:57:01;;;;;;;6.53;5.30;;;;;;;;;;1497225;39;20032;-60
2021/05/29 05:58:02;;;;;;;8.65;5.88;;;;;;;;;;1497028;39;20024;-60
2021/05/29 05:59:03;;;;;;;6.70;5.25;;;;;;;;;;1496969;39;20035;-60
2021/05/29 06:00:08;;;;;;;11.73;5.60;;;;;;;;;;1497350;39;20063;-59
2021/05/29 06:01:10;;;;;;;7.18;4.78;;;;;;;;;;1497139;39;20023;-59
2021/05/29 06:02:11;;;;;;;8.48;5.57;;;;;;;;;;1497200;39;20042;-60
2021/05/29 06:03:12;;;;;;;8.70;5.47;;;;;;;;;;1497170;39;20068;-61
2021/05/29 06:04:13;;;;;;;8.30;5.53;;;;;;;;;;1497072;39;20349;-59
2021/05/29 06:05:15;;;;;;;6.43;5.20;;;;;;;;;;1497068;39;20023;-60
2021/05/29 06:06:16;;;;;;;8.80;5.55;;;;;;;;;;1497181;39;20263;-59
2021/05/29 06:07:17;;;;;;;8.40;4.97;;;;;;;;;;1496964;39;20023;-59
2021/05/29 06:08:20;;;;;;;6.45;5.10;;;;;;;;;;1497229;39;20108;-61